createdAt,value
2022-10-19T00:02:19.419Z,5.62
2022-10-19T00:04:45.988Z,5.60
2022-10-19T00:07:12.448Z,5.56
2022-10-19T00:09:39.478Z,5.55
2022-10-19T00:12:06.036Z,5.54
2022-10-19T00:14:32.508Z,5.50
2022-10-19T00:16:59.196Z,5.48
2022-10-19T00:19:27.693Z,5.48
2022-10-19T00:21:54.752Z,5.46
2022-10-19T00:24:21.818Z,5.42
2022-10-19T00:26:48.377Z,5.39
2022-10-19T00:29:15.695Z,5.32
2022-10-19T00:31:42.711Z,5.37
2022-10-19T00:34:10.018Z,5.39
2022-10-19T00:36:38.896Z,5.37
2022-10-19T00:39:10.999Z,5.38
2022-10-19T00:41:38.168Z,5.36
2022-10-19T00:44:13.777Z,5.26
2022-10-19T00:46:43.156Z,5.25
2022-10-19T00:49:12.880Z,5.18
2022-10-19T00:51:46.971Z,5.22
2022-10-19T00:54:14.274Z,5.15
2022-10-19T00:56:44.069Z,5.17
2022-10-19T00:59:12.967Z,5.21
2022-10-19T01:01:39.644Z,5.20
2022-10-19T01:04:06.315Z,5.22
2022-10-19T01:06:33.977Z,5.19
2022-10-19T01:09:00.912Z,5.17
2022-10-19T01:11:52.105Z,5.22
2022-10-19T01:14:27.312Z,5.18
2022-10-19T01:17:05.515Z,5.20
2022-10-19T01:20:07.839Z,5.26
2022-10-19T01:23:05.398Z,5.34
2022-10-19T01:25:43.737Z,5.43
2022-10-19T01:28:47.762Z,5.56
2022-10-19T01:31:45.274Z,5.60
2022-10-19T01:34:17.549Z,5.66
2022-10-19T01:36:52.570Z,5.70
2022-10-19T01:39:26.776Z,5.74
2022-10-19T01:42:03.127Z,5.82
2022-10-19T01:44:38.814Z,5.78
2022-10-19T01:47:10.814Z,5.82
2022-10-19T01:49:52.415Z,5.81
2022-10-19T01:52:20.745Z,5.76
2022-10-19T01:54:52.121Z,5.68
2022-10-19T01:57:23.949Z,5.67
2022-10-19T01:59:52.296Z,5.64
2022-10-19T02:02:21.119Z,5.54
2022-10-19T02:04:50.267Z,5.55
2022-10-19T02:07:16.789Z,5.50
2022-10-19T02:09:43.273Z,5.47
2022-10-19T02:12:11.344Z,5.44
2022-10-19T02:14:43.949Z,5.38
2022-10-19T02:17:14.717Z,5.40
2022-10-19T02:19:41.737Z,5.32
2022-10-19T02:22:09.275Z,5.27
2022-10-19T02:24:35.860Z,5.25
2022-10-19T02:27:05.509Z,5.20
2022-10-19T02:29:33.814Z,5.17
2022-10-19T02:32:01.782Z,5.12
2022-10-19T02:34:28.454Z,5.09
2022-10-19T02:36:55.623Z,5.07
2022-10-19T02:39:22.713Z,4.97
2022-10-19T02:41:55.994Z,4.94
2022-10-19T02:44:37.017Z,4.98
2022-10-19T02:47:07.214Z,4.98
2022-10-19T02:49:36.057Z,4.97
2022-10-19T02:52:08.764Z,4.90
2022-10-19T02:54:35.811Z,4.90
2022-10-19T02:57:14.633Z,4.79
2022-10-19T02:59:41.266Z,4.81
2022-10-19T03:02:07.773Z,4.76
2022-10-19T03:04:34.459Z,4.75
2022-10-19T03:07:01.570Z,4.70
2022-10-19T03:09:28.265Z,4.73
2022-10-19T03:11:57.694Z,4.70
2022-10-19T03:14:24.290Z,4.71
2022-10-19T03:16:50.761Z,4.68
2022-10-19T03:19:17.412Z,4.68
2022-10-19T03:21:43.942Z,4.66
2022-10-19T03:24:10.390Z,4.63
2022-10-19T03:26:36.910Z,4.54
2022-10-19T03:29:04.366Z,4.53
2022-10-19T03:31:30.949Z,4.50
2022-10-19T03:33:57.472Z,4.51
2022-10-19T03:36:26.753Z,4.50
2022-10-19T03:38:58.591Z,4.48
2022-10-19T03:41:27.658Z,4.47
2022-10-19T03:43:54.436Z,4.45
2022-10-19T03:46:21.583Z,4.44
2022-10-19T03:48:48.311Z,4.43
2022-10-19T03:51:17.731Z,4.45
2022-10-19T03:53:44.765Z,4.40
2022-10-19T03:56:15.570Z,4.37
2022-10-19T03:58:43.675Z,4.30
2022-10-19T04:01:16.202Z,4.24
2022-10-19T04:03:43.049Z,4.22
2022-10-19T04:06:18.334Z,4.28
2022-10-19T04:08:48.923Z,4.28
2022-10-19T04:11:17.262Z,4.25
2022-10-19T04:13:43.799Z,4.23
2022-10-19T04:16:13.735Z,4.24
2022-10-19T04:18:40.242Z,4.20
2022-10-19T04:21:07.374Z,4.17
2022-10-19T04:23:36.019Z,4.16
2022-10-19T04:26:07.754Z,4.17
2022-10-19T04:28:34.644Z,4.11
2022-10-19T04:31:05.202Z,4.12
2022-10-19T04:33:32.648Z,4.11
2022-10-19T04:36:03.013Z,4.07
2022-10-19T04:38:29.917Z,4.08
2022-10-19T04:41:02.158Z,4.06
2022-10-19T04:43:28.983Z,4.03
2022-10-19T04:45:55.507Z,4.05
2022-10-19T04:48:22.062Z,4.04
2022-10-19T04:50:48.519Z,4.06
2022-10-19T04:53:15.052Z,4.05
2022-10-19T04:55:42.563Z,4.10
2022-10-19T04:58:09.605Z,4.13
2022-10-19T05:00:39.172Z,4.13
2022-10-19T05:03:05.981Z,4.09
2022-10-19T05:05:33.306Z,4.10
2022-10-19T05:08:00.421Z,4.08
2022-10-19T05:10:27.082Z,4.10
2022-10-19T05:12:53.894Z,4.08
2022-10-19T05:15:20.931Z,4.02
2022-10-19T05:17:47.462Z,3.99
2022-10-19T05:20:13.963Z,3.95
2022-10-19T05:22:40.592Z,3.92
2022-10-19T05:25:08.005Z,3.89
2022-10-19T05:27:34.769Z,3.89
2022-10-19T05:30:01.373Z,3.92
2022-10-19T05:32:28.979Z,3.83
2022-10-19T05:34:55.573Z,3.91
2022-10-19T05:37:22.041Z,3.88
2022-10-19T05:39:48.517Z,3.87
2022-10-19T05:42:15.014Z,3.83
2022-10-19T05:44:41.563Z,3.75
2022-10-19T05:47:08.194Z,3.77
2022-10-19T05:49:34.673Z,3.77
2022-10-19T05:52:01.140Z,3.79
2022-10-19T05:54:28.591Z,3.70
2022-10-19T05:56:55.816Z,3.74
2022-10-19T05:59:23.564Z,3.76
2022-10-19T06:01:50.560Z,3.71
2022-10-19T06:06:48.552Z,3.67
2022-10-19T06:09:15.235Z,3.69
2022-10-19T06:11:43.011Z,3.71
2022-10-19T06:14:13.700Z,3.70
2022-10-19T06:16:40.267Z,3.72
2022-10-19T06:19:06.770Z,3.76
2022-10-19T06:21:34.703Z,3.78
2022-10-19T06:24:05.165Z,3.79
2022-10-19T06:26:33.453Z,3.80
2022-10-19T06:29:01.665Z,3.82
2022-10-19T06:31:30.237Z,3.87
2022-10-19T06:33:57.027Z,3.93
2022-10-19T06:36:26.486Z,3.99
2022-10-19T06:38:56.637Z,4.06
2022-10-19T06:41:23.984Z,4.11
2022-10-19T06:43:55.434Z,4.23
2022-10-19T06:46:26.952Z,4.32
2022-10-19T06:48:58.563Z,4.37
2022-10-19T06:51:27.701Z,4.45
2022-10-19T06:53:57.168Z,4.49
2022-10-19T06:56:25.541Z,4.56
2022-10-19T06:58:52.855Z,4.60
2022-10-19T07:01:19.954Z,4.62
2022-10-19T07:03:46.613Z,4.67
2022-10-19T07:06:14.034Z,4.71
2022-10-19T07:08:42.310Z,4.72
2022-10-19T07:11:12.047Z,4.78
2022-10-19T07:13:38.760Z,4.84
2022-10-19T07:16:08.295Z,4.90
2022-10-19T07:18:36.645Z,4.96
2022-10-19T07:21:06.603Z,5.09
2022-10-19T07:23:34.770Z,5.19
2022-10-19T07:26:21.069Z,5.37
2022-10-19T07:28:49.155Z,5.47
2022-10-19T07:31:17.994Z,5.66
2022-10-19T07:33:45.000Z,5.91
2022-10-19T07:36:13.823Z,5.98
2022-10-19T07:38:41.058Z,6.21
2022-10-19T07:41:12.709Z,6.51
2022-10-19T07:43:40.546Z,6.83
2022-10-19T07:46:09.617Z,7.01
2022-10-19T07:48:36.270Z,7.12
2022-10-19T07:51:05.558Z,7.28
2022-10-19T07:53:32.858Z,7.53
2022-10-19T07:56:08.557Z,7.69
2022-10-19T07:58:36.463Z,7.78
2022-10-19T08:01:21.449Z,7.84
2022-10-19T08:06:35.161Z,8.15
2022-10-19T08:09:01.772Z,8.14
2022-10-19T08:11:31.065Z,8.19
2022-10-19T08:14:02.742Z,8.24
2022-10-19T08:16:33.893Z,8.38
2022-10-19T08:19:03.396Z,8.45
2022-10-19T08:21:31.096Z,8.59
2022-10-19T08:23:58.270Z,8.64
2022-10-19T08:26:25.842Z,8.76
2022-10-19T08:28:52.429Z,8.90
2022-10-19T08:31:25.553Z,8.99
2022-10-19T08:33:52.068Z,9.08
2022-10-19T08:36:19.814Z,9.21
2022-10-19T08:38:48.410Z,9.26
2022-10-19T08:41:21.750Z,9.35
2022-10-19T08:44:17.475Z,9.43
2022-10-19T08:46:50.042Z,9.55
2022-10-19T08:49:20.509Z,9.66
2022-10-19T08:51:53.587Z,9.70
2022-10-19T08:54:20.039Z,9.69
2022-10-19T08:57:18.941Z,9.81
2022-10-19T08:59:47.997Z,9.92
2022-10-19T09:02:21.756Z,9.99
2022-10-19T09:04:56.031Z,10.06
2022-10-19T09:07:28.999Z,10.30
2022-10-19T09:10:19.033Z,10.39
2022-10-19T09:13:15.105Z,10.59
2022-10-19T09:15:48.284Z,10.59
2022-10-19T09:18:21.765Z,10.63
2022-10-19T09:20:51.692Z,10.75
2022-10-19T09:23:39.649Z,10.81
2022-10-19T09:26:21.988Z,10.84
2022-10-19T09:28:58.427Z,10.95
2022-10-19T09:31:31.809Z,10.91
2022-10-19T09:34:34.984Z,11.05
2022-10-19T09:37:01.705Z,11.18
2022-10-19T09:39:30.372Z,11.18
2022-10-19T09:41:59.700Z,11.22
2022-10-19T09:44:27.530Z,11.30
2022-10-19T09:47:32.199Z,11.32
2022-10-19T09:50:14.802Z,11.29
2022-10-19T09:52:43.265Z,11.42
2022-10-19T09:55:15.830Z,11.33
2022-10-19T09:57:47.919Z,11.32
2022-10-19T10:00:23.156Z,11.17
2022-10-19T10:02:54.687Z,11.22
2022-10-19T10:05:32.619Z,11.27
2022-10-19T10:07:59.378Z,11.30
2022-10-19T10:10:38.502Z,11.30
2022-10-19T10:13:06.112Z,11.37
2022-10-19T10:15:44.086Z,11.45
2022-10-19T10:18:15.505Z,11.39
2022-10-19T10:21:25.131Z,11.58
2022-10-19T10:24:10.912Z,11.48
2022-10-19T10:26:49.320Z,11.46
2022-10-19T10:29:24.942Z,11.53
2022-10-19T10:31:55.252Z,11.51
2022-10-19T10:35:03.217Z,11.63
2022-10-19T10:37:21.616Z,11.68
2022-10-19T10:39:52.569Z,11.67
2022-10-19T10:42:22.233Z,11.61
2022-10-19T10:44:53.245Z,11.76
2022-10-19T10:47:21.239Z,11.88
2022-10-19T10:50:01.143Z,11.77
2022-10-19T10:52:31.433Z,11.87
2022-10-19T10:55:08.270Z,11.94
2022-10-19T10:57:40.039Z,11.93
2022-10-19T11:00:16.733Z,11.91
2022-10-19T11:02:54.389Z,11.87
2022-10-19T11:05:26.746Z,11.94
2022-10-19T11:08:01.400Z,11.95
2022-10-19T11:10:35.356Z,12.04
2022-10-19T11:13:10.331Z,12.13
2022-10-19T11:15:47.132Z,12.11
2022-10-19T11:18:22.547Z,12.05
2022-10-19T11:21:06.205Z,12.11
2022-10-19T11:23:45.123Z,12.06
2022-10-19T11:26:32.260Z,12.18
2022-10-19T11:29:17.073Z,12.33
2022-10-19T11:31:55.272Z,12.39
2022-10-19T11:34:30.575Z,12.56
2022-10-19T11:37:15.015Z,12.63
2022-10-19T11:40:00.975Z,12.78
2022-10-19T11:42:49.550Z,12.60
2022-10-19T11:45:28.478Z,12.51
2022-10-19T11:48:03.916Z,12.60
2022-10-19T11:50:38.607Z,12.57
2022-10-19T11:53:19.338Z,12.67
2022-10-19T11:56:07.802Z,12.75
2022-10-19T12:01:59.481Z,12.74
2022-10-19T12:04:25.958Z,12.72
2022-10-19T12:07:15.232Z,12.64
2022-10-19T12:09:55.561Z,12.68
2022-10-19T12:12:33.425Z,12.62
2022-10-19T12:15:12.395Z,12.71
2022-10-19T12:17:42.585Z,12.74
2022-10-19T12:20:20.037Z,12.65
2022-10-19T12:22:49.886Z,12.63
2022-10-19T12:25:18.768Z,12.60
2022-10-19T12:27:47.756Z,12.65
2022-10-19T12:30:23.106Z,12.57
2022-10-19T12:32:59.356Z,12.63
2022-10-19T12:35:42.648Z,12.65
2022-10-19T12:38:23.352Z,12.73
2022-10-19T12:41:01.951Z,12.76
2022-10-19T12:43:40.712Z,12.86
2022-10-19T12:46:49.900Z,12.70
2022-10-19T12:49:26.227Z,12.74
2022-10-19T12:51:55.250Z,12.77
2022-10-19T12:54:27.424Z,12.74
2022-10-19T12:56:56.326Z,12.76
2022-10-19T12:59:26.322Z,12.75
2022-10-19T13:01:54.346Z,12.82
2022-10-19T13:04:30.082Z,12.88
2022-10-19T13:06:56.525Z,12.98
2022-10-19T13:09:34.396Z,13.05
2022-10-19T13:12:19.859Z,13.08
2022-10-19T13:15:00.727Z,13.17
2022-10-19T13:17:36.916Z,13.03
2022-10-19T13:20:15.615Z,13.06
2022-10-19T13:22:47.084Z,13.04
2022-10-19T13:25:19.641Z,12.97
2022-10-19T13:27:52.311Z,13.03
2022-10-19T13:30:41.735Z,13.09
2022-10-19T13:33:29.768Z,13.06
2022-10-19T13:35:59.296Z,13.16
2022-10-19T13:38:28.847Z,13.18
2022-10-19T13:40:55.487Z,13.19
2022-10-19T13:43:34.872Z,13.12
2022-10-19T13:46:10.635Z,13.20
2022-10-19T13:49:02.233Z,13.11
2022-10-19T13:51:47.961Z,13.17
2022-10-19T13:54:42.159Z,13.14
2022-10-19T13:57:23.479Z,13.01
2022-10-19T14:00:03.536Z,12.96
2022-10-19T14:03:00.713Z,12.93
2022-10-19T14:08:34.500Z,12.95
2022-10-19T14:11:19.168Z,12.95
2022-10-19T14:13:46.571Z,12.88
2022-10-19T14:16:21.536Z,12.94
2022-10-19T14:18:55.681Z,12.93
2022-10-19T14:21:34.096Z,13.04
2022-10-19T14:24:01.155Z,13.07
2022-10-19T14:26:30.970Z,13.11
2022-10-19T14:28:59.786Z,13.17
2022-10-19T14:31:34.042Z,13.20
2022-10-19T14:34:03.931Z,13.25
2022-10-19T14:36:38.238Z,13.36
2022-10-19T14:39:05.818Z,13.27
2022-10-19T14:41:37.800Z,13.15
2022-10-19T14:44:44.580Z,13.17
2022-10-19T14:47:26.625Z,13.22
2022-10-19T14:49:53.630Z,13.15
2022-10-19T14:55:02.243Z,12.98
2022-10-19T14:57:34.830Z,12.90
2022-10-19T15:00:06.522Z,12.85
2022-10-19T15:02:47.129Z,12.72
2022-10-19T15:05:27.175Z,12.70
2022-10-19T15:07:54.823Z,12.59
2022-10-19T15:10:25.985Z,12.52
2022-10-19T15:13:00.549Z,12.52
2022-10-19T15:15:30.547Z,12.39
2022-10-19T15:18:00.123Z,12.45
2022-10-19T15:20:27.537Z,12.37
2022-10-19T15:22:55.257Z,12.27
2022-10-19T15:25:37.028Z,12.20
2022-10-19T15:28:39.148Z,12.19
2022-10-19T15:31:18.850Z,12.15
2022-10-19T15:33:49.709Z,12.04
2022-10-19T15:36:17.536Z,11.91
2022-10-19T15:38:47.640Z,11.88
2022-10-19T15:41:20.460Z,11.81
2022-10-19T15:43:52.851Z,11.78
2022-10-19T15:46:31.069Z,11.69
2022-10-19T15:48:59.722Z,11.66
2022-10-19T15:51:26.293Z,11.64
2022-10-19T15:53:53.488Z,11.62
2022-10-19T15:56:21.191Z,11.46
2022-10-19T15:58:52.185Z,11.48
2022-10-19T16:01:24.742Z,11.43
2022-10-19T16:03:51.552Z,11.31
2022-10-19T16:06:19.477Z,11.27
2022-10-19T16:08:46.565Z,11.27
2022-10-19T16:11:17.732Z,11.18
2022-10-19T16:13:44.560Z,11.08
2022-10-19T16:16:20.506Z,11.06
2022-10-19T16:18:47.329Z,11.01
2022-10-19T16:21:14.710Z,10.94
2022-10-19T16:23:42.244Z,10.91
2022-10-19T16:26:09.716Z,10.91
2022-10-19T16:28:36.236Z,10.88
2022-10-19T16:31:02.918Z,10.76
2022-10-19T16:33:29.620Z,10.75
2022-10-19T16:35:56.105Z,10.68
2022-10-19T16:38:22.585Z,10.63
2022-10-19T16:40:49.042Z,10.57
2022-10-19T16:43:15.498Z,10.59
2022-10-19T16:45:42.866Z,10.61
2022-10-19T16:48:12.788Z,10.52
2022-10-19T16:50:39.533Z,10.49
2022-10-19T16:53:12.256Z,10.42
2022-10-19T16:55:40.559Z,10.41
2022-10-19T16:58:07.491Z,10.42
2022-10-19T17:00:35.262Z,10.42
2022-10-19T17:03:01.890Z,10.38
2022-10-19T17:05:28.969Z,10.41
2022-10-19T17:07:55.456Z,10.38
2022-10-19T17:10:21.995Z,10.43
2022-10-19T17:12:48.611Z,10.38
2022-10-19T17:15:41.540Z,10.41
2022-10-19T17:18:01.793Z,10.37
2022-10-19T17:20:28.307Z,10.34
2022-10-19T17:22:54.818Z,10.31
2022-10-19T17:25:21.320Z,10.25
2022-10-19T17:27:51.905Z,10.23
2022-10-19T17:30:18.595Z,10.17
2022-10-19T17:32:45.291Z,10.21
2022-10-19T17:35:12.324Z,10.22
2022-10-19T17:37:38.846Z,10.13
2022-10-19T17:40:06.517Z,10.15
2022-10-19T17:42:36.491Z,10.10
2022-10-19T17:45:03.531Z,10.03
2022-10-19T17:47:30.585Z,10.06
2022-10-19T17:49:57.074Z,10.04
2022-10-19T17:52:23.580Z,9.91
2022-10-19T17:55:11.066Z,9.95
2022-10-19T17:57:37.205Z,9.87
2022-10-19T18:00:05.813Z,9.83
2022-10-19T18:02:32.327Z,9.74
2022-10-19T18:04:58.872Z,9.82
2022-10-19T18:07:26.192Z,9.80
2022-10-19T18:09:52.857Z,9.83
2022-10-19T18:12:19.355Z,9.81
2022-10-19T18:14:45.871Z,9.88
2022-10-19T18:17:12.421Z,10.00
2022-10-19T18:19:38.927Z,9.95
2022-10-19T18:22:05.434Z,9.95
2022-10-19T18:24:32.963Z,9.87
2022-10-19T18:26:59.483Z,9.92
2022-10-19T18:29:27.040Z,9.90
2022-10-19T18:31:53.910Z,9.83
2022-10-19T18:34:25.667Z,9.85
2022-10-19T18:36:52.619Z,9.86
2022-10-19T18:39:19.462Z,9.80
2022-10-19T18:41:46.035Z,9.71
2022-10-19T18:44:13.547Z,9.61
2022-10-19T18:46:41.239Z,9.57
2022-10-19T18:49:08.958Z,9.58
2022-10-19T18:51:36.204Z,9.59
2022-10-19T18:54:02.780Z,9.56
2022-10-19T18:56:29.542Z,9.52
2022-10-19T18:58:57.103Z,9.38
2022-10-19T19:01:26.940Z,9.48
2022-10-19T19:03:55.998Z,9.42
2022-10-19T19:06:30.376Z,9.39
2022-10-19T19:08:58.168Z,9.38
2022-10-19T19:11:33.013Z,9.38
2022-10-19T19:14:06.230Z,9.31
2022-10-19T19:16:35.247Z,9.28
2022-10-19T19:19:02.060Z,9.25
2022-10-19T19:21:30.560Z,9.26
2022-10-19T19:24:00.213Z,9.21
2022-10-19T19:26:29.021Z,9.22
2022-10-19T19:28:56.786Z,9.18
2022-10-19T19:31:23.804Z,9.21
2022-10-19T19:33:50.445Z,9.23
2022-10-19T19:36:18.277Z,9.14
2022-10-19T19:38:46.173Z,9.05
2022-10-19T19:41:14.664Z,9.08
2022-10-19T19:43:42.620Z,8.99
2022-10-19T19:46:13.085Z,8.98
2022-10-19T19:48:41.539Z,8.86
2022-10-19T19:51:09.923Z,8.86
2022-10-19T19:53:37.777Z,8.89
2022-10-19T19:56:06.401Z,8.87
2022-10-19T19:58:33.525Z,8.92
2022-10-19T20:01:00.647Z,8.81
2022-10-19T20:03:27.238Z,8.83
2022-10-19T20:05:53.767Z,8.85
2022-10-19T20:08:20.249Z,8.82
2022-10-19T20:10:46.743Z,8.76
2022-10-19T20:13:13.221Z,8.72
2022-10-19T20:15:39.923Z,8.78
2022-10-19T20:18:06.920Z,8.69
2022-10-19T20:20:33.464Z,8.69
2022-10-19T20:22:59.919Z,8.75
2022-10-19T20:25:26.957Z,8.71
2022-10-19T20:27:53.433Z,8.68
2022-10-19T20:30:20.090Z,8.69
2022-10-19T20:32:46.559Z,8.66
2022-10-19T20:35:13.041Z,8.63
2022-10-19T20:37:39.554Z,8.51
2022-10-19T20:40:08.778Z,8.48
2022-10-19T20:42:36.141Z,8.45
2022-10-19T20:45:03.037Z,8.41
2022-10-19T20:47:30.367Z,8.38
2022-10-19T20:49:57.458Z,8.45
2022-10-19T20:52:23.986Z,8.52
2022-10-19T20:54:50.529Z,8.50
2022-10-19T20:57:17.015Z,8.46
2022-10-19T20:59:45.594Z,8.52
2022-10-19T21:02:12.075Z,8.49
2022-10-19T21:04:38.867Z,8.45
2022-10-19T21:07:05.400Z,8.36
2022-10-19T21:09:32.175Z,8.38
2022-10-19T21:11:59.274Z,8.31
2022-10-19T21:14:28.868Z,8.28
2022-10-19T21:16:59.363Z,8.32
2022-10-19T21:19:27.890Z,8.24
2022-10-19T21:21:57.009Z,8.26
2022-10-19T21:24:27.314Z,8.22
2022-10-19T21:26:54.242Z,8.24
2022-10-19T21:29:21.090Z,8.22
2022-10-19T21:31:49.773Z,8.15
2022-10-19T21:34:22.499Z,8.10
2022-10-19T21:36:49.164Z,8.16
2022-10-19T21:39:16.482Z,8.22
2022-10-19T21:41:42.960Z,8.16
2022-10-19T21:44:09.527Z,8.17
2022-10-19T21:46:36.053Z,8.09
2022-10-19T21:49:02.552Z,8.06
2022-10-19T21:51:39.333Z,8.09
2022-10-19T21:56:40.958Z,8.04
2022-10-19T21:59:07.690Z,7.97
2022-10-19T22:01:38.611Z,7.94
2022-10-19T22:04:12.869Z,7.88
2022-10-19T22:06:40.026Z,7.95
2022-10-19T22:09:08.939Z,7.85
2022-10-19T22:11:35.789Z,7.89
2022-10-19T22:14:04.352Z,7.94
2022-10-19T22:16:32.808Z,7.96
2022-10-19T22:18:59.567Z,7.88
2022-10-19T22:21:31.165Z,7.79
2022-10-19T22:24:03.049Z,7.77
2022-10-19T22:26:32.431Z,7.71
2022-10-19T22:29:00.987Z,7.68
2022-10-19T22:31:29.623Z,7.66
2022-10-19T22:33:56.334Z,7.60
2022-10-19T22:36:22.883Z,7.74
2022-10-19T22:38:49.373Z,7.75
2022-10-19T22:42:12.493Z,7.77
2022-10-19T22:44:39.028Z,7.68
2022-10-19T22:47:05.564Z,7.59
2022-10-19T22:49:33.140Z,7.60
2022-10-19T22:52:00.280Z,7.65
2022-10-19T22:54:26.865Z,7.58
2022-10-19T22:56:53.631Z,7.60
2022-10-19T22:59:20.131Z,7.59
2022-10-19T23:01:46.627Z,7.50
2022-10-19T23:04:13.205Z,7.44
2022-10-19T23:06:40.826Z,7.44
2022-10-19T23:09:07.459Z,7.44
2022-10-19T23:11:33.952Z,7.45
2022-10-19T23:14:00.516Z,7.47
2022-10-19T23:18:54.471Z,7.46
2022-10-19T23:21:21.319Z,7.39
2022-10-19T23:23:47.787Z,7.45
2022-10-19T23:26:17.097Z,7.45
2022-10-19T23:28:46.265Z,7.41
2022-10-19T23:31:15.731Z,7.39
2022-10-19T23:33:43.631Z,7.40
2022-10-19T23:36:15.636Z,7.37
2022-10-19T23:38:45.034Z,7.35
2022-10-19T23:41:12.411Z,7.31
2022-10-19T23:43:39.792Z,7.34
2022-10-19T23:46:06.638Z,7.27
2022-10-19T23:48:35.906Z,7.33
2022-10-19T23:51:04.989Z,7.33
2022-10-19T23:53:35.842Z,7.28
2022-10-19T23:56:08.055Z,7.31
2022-10-19T23:58:34.603Z,7.37
